createdAt,value
2018-09-14T00:00:42.369Z,16.89
2018-09-14T00:01:42.355Z,16.39
2018-09-14T00:02:42.342Z,18.10
2018-09-14T00:03:42.334Z,17.79
2018-09-14T00:04:42.318Z,19.10
2018-09-14T00:05:42.314Z,17.70
2018-09-14T00:06:42.298Z,17.00
2018-09-14T00:07:42.288Z,16.00
2018-09-14T00:08:42.275Z,16.60
2018-09-14T00:09:42.269Z,18.20
2018-09-14T00:10:42.256Z,17.00
2018-09-14T00:11:42.248Z,17.00
2018-09-14T00:12:42.235Z,17.29
2018-09-14T00:13:42.221Z,19.20
2018-09-14T00:14:42.210Z,18.60
2018-09-14T00:15:42.201Z,18.50
2018-09-14T00:16:42.191Z,20.00
2018-09-14T00:17:42.177Z,19.50
2018-09-14T00:18:42.169Z,18.89
2018-09-14T00:19:42.160Z,21.39
2018-09-14T00:20:42.146Z,18.50
2018-09-14T00:21:42.134Z,20.29
2018-09-14T00:22:42.124Z,18.29
2018-09-14T00:23:42.112Z,19.39
2018-09-14T00:24:42.103Z,19.79
2018-09-14T00:25:42.091Z,18.20
2018-09-14T00:26:42.079Z,18.89
2018-09-14T00:27:42.070Z,18.60
2018-09-14T00:28:42.060Z,20.20
2018-09-14T00:29:42.048Z,21.10
2018-09-14T00:30:42.035Z,19.39
2018-09-14T00:31:42.028Z,22.60
2018-09-14T00:32:42.017Z,19.50
2018-09-14T00:33:42.005Z,18.70
2018-09-14T00:34:41.992Z,18.39
2018-09-14T00:35:41.981Z,18.70
2018-09-14T00:36:41.972Z,20.00
2018-09-14T00:37:41.958Z,23.70
2018-09-14T00:38:41.952Z,21.00
2018-09-14T00:39:41.939Z,19.29
2018-09-14T00:40:41.926Z,22.89
2018-09-14T00:41:41.915Z,19.79
2018-09-14T00:42:41.907Z,19.60
2018-09-14T00:43:41.895Z,21.50
2018-09-14T00:44:41.884Z,20.70
2018-09-14T00:45:41.873Z,19.20
2018-09-14T00:46:41.865Z,21.70
2018-09-14T00:47:41.854Z,19.00
2018-09-14T00:48:41.839Z,20.00
2018-09-14T00:49:41.829Z,18.79
2018-09-14T00:50:41.817Z,21.50
2018-09-14T00:51:41.805Z,19.10
2018-09-14T00:52:41.796Z,19.39
2018-09-14T00:53:41.784Z,20.60
2018-09-14T00:54:41.773Z,22.60
2018-09-14T00:55:41.763Z,21.39
2018-09-14T00:56:41.750Z,22.10
2018-09-14T00:57:41.745Z,21.10
2018-09-14T00:58:41.732Z,22.10
2018-09-14T00:59:41.723Z,19.89
2018-09-14T01:00:41.709Z,23.00
2018-09-14T01:01:41.697Z,23.10
2018-09-14T01:02:41.686Z,22.60
2018-09-14T01:03:41.677Z,24.70
2018-09-14T01:04:41.664Z,24.39
2018-09-14T01:05:41.654Z,23.20
2018-09-14T01:06:41.644Z,21.79
2018-09-14T01:07:41.631Z,23.89
2018-09-14T01:08:41.622Z,21.10
2018-09-14T01:09:41.616Z,20.89
2018-09-14T01:10:41.599Z,20.70
2018-09-14T01:11:41.587Z,22.60
2018-09-14T01:12:41.577Z,24.00
2018-09-14T01:13:41.566Z,22.29
2018-09-14T01:14:41.556Z,21.29
2018-09-14T01:15:41.546Z,20.89
2018-09-14T01:16:41.535Z,23.60
2018-09-14T01:17:41.525Z,21.29
2018-09-14T01:18:41.513Z,22.39
2018-09-14T01:19:41.501Z,24.20
2018-09-14T01:20:41.491Z,23.29
2018-09-14T01:21:41.484Z,22.70
2018-09-14T01:22:41.469Z,23.89
2018-09-14T01:23:41.462Z,23.50
2018-09-14T01:24:41.447Z,23.20
2018-09-14T01:25:41.435Z,21.39
2018-09-14T01:26:41.425Z,21.70
2018-09-14T01:27:41.413Z,21.39
2018-09-14T01:28:41.407Z,22.29
2018-09-14T01:29:41.397Z,22.10
2018-09-14T01:30:41.385Z,22.00
2018-09-14T01:31:41.369Z,22.60
2018-09-14T01:32:41.358Z,21.70
2018-09-14T01:33:41.346Z,23.39
2018-09-14T01:34:41.335Z,24.79
2018-09-14T01:35:41.324Z,26.79
2018-09-14T01:36:41.314Z,26.70
2018-09-14T01:37:41.304Z,23.60
2018-09-14T01:38:41.295Z,24.39
2018-09-14T01:39:41.283Z,22.79
2018-09-14T01:40:41.270Z,22.89
2018-09-14T01:41:41.264Z,25.20
2018-09-14T01:42:41.252Z,22.20
2018-09-14T01:43:41.238Z,23.89
2018-09-14T01:44:41.235Z,23.60
2018-09-14T01:45:41.216Z,23.10
2018-09-14T01:46:41.205Z,20.89
2018-09-14T01:47:41.193Z,23.39
2018-09-14T01:48:41.183Z,23.50
2018-09-14T01:49:41.171Z,24.29
2018-09-14T01:50:41.160Z,24.79
2018-09-14T01:51:41.149Z,21.50
2018-09-14T01:52:41.143Z,26.39
2018-09-14T01:53:41.127Z,27.10
2018-09-14T01:54:41.118Z,25.89
2018-09-14T01:55:41.108Z,26.29
2018-09-14T01:56:41.100Z,26.89
2018-09-14T01:57:41.086Z,25.60
2018-09-14T01:58:41.072Z,24.79
2018-09-14T01:59:41.063Z,24.70
2018-09-14T02:00:41.053Z,23.29
2018-09-14T02:01:41.045Z,23.10
2018-09-14T02:02:41.031Z,24.79
2018-09-14T02:03:41.023Z,24.29
2018-09-14T02:04:41.010Z,24.39
2018-09-14T02:05:40.998Z,24.20
2018-09-14T02:06:40.989Z,22.00
2018-09-14T02:07:40.977Z,23.10
2018-09-14T02:08:40.967Z,21.29
2018-09-14T02:09:40.953Z,23.00
2018-09-14T02:10:40.949Z,22.10
2018-09-14T02:11:40.936Z,23.50
2018-09-14T02:12:40.927Z,22.60
2018-09-14T02:13:40.911Z,24.10
2018-09-14T02:14:40.899Z,23.39
2018-09-14T02:15:40.889Z,25.20
2018-09-14T02:16:40.876Z,22.10
2018-09-14T02:17:40.866Z,20.29
2018-09-14T02:18:40.862Z,21.29
2018-09-14T02:19:40.844Z,21.70
2018-09-14T02:20:40.832Z,20.39
2018-09-14T02:21:40.822Z,20.39
2018-09-14T02:22:40.811Z,19.29
2018-09-14T02:23:40.803Z,19.70
2018-09-14T02:24:40.797Z,20.89
2018-09-14T02:25:40.852Z,19.00
2018-09-14T02:26:40.767Z,19.00
2018-09-14T02:27:40.756Z,20.20
2018-09-14T02:28:40.747Z,18.70
2018-09-14T02:29:40.734Z,20.60
2018-09-14T02:30:40.726Z,22.20
2018-09-14T02:31:40.717Z,20.00
2018-09-14T02:32:40.703Z,25.60
2018-09-14T02:33:40.696Z,24.29
2018-09-14T02:34:40.683Z,23.89
2018-09-14T02:35:40.672Z,22.10
2018-09-14T02:36:40.668Z,20.79
2018-09-14T02:37:40.651Z,19.39
2018-09-14T02:38:40.638Z,22.20
2018-09-14T02:39:40.626Z,23.00
2018-09-14T02:40:40.614Z,21.10
2018-09-14T02:41:40.607Z,22.29
2018-09-14T02:42:40.601Z,21.60
2018-09-14T02:43:40.582Z,24.10
2018-09-14T02:44:40.571Z,18.89
2018-09-14T02:45:40.561Z,20.00
2018-09-14T02:46:40.551Z,20.70
2018-09-14T02:47:40.538Z,20.79
2018-09-14T02:48:40.529Z,21.60
2018-09-14T02:49:40.516Z,21.20
2018-09-14T02:50:40.507Z,20.79
2018-09-14T02:51:40.497Z,22.29
2018-09-14T02:52:40.484Z,26.60
2018-09-14T02:53:40.472Z,24.20
2018-09-14T02:54:40.470Z,22.10
2018-09-14T02:55:40.455Z,25.50
2018-09-14T02:56:40.438Z,27.70
2018-09-14T02:57:40.428Z,30.50
2018-09-14T02:58:40.423Z,29.29
2018-09-14T02:59:40.407Z,26.70
2018-09-14T03:00:40.398Z,26.00
2018-09-14T03:01:40.388Z,44.40
2018-09-14T03:02:40.381Z,70.40
2018-09-14T03:03:40.363Z,54.90
2018-09-14T03:04:40.353Z,65.50
2018-09-14T03:05:40.342Z,74.40
2018-09-14T03:06:40.333Z,132.30
2018-09-14T03:07:40.320Z,49.09
2018-09-14T03:08:40.310Z,31.29
2018-09-14T03:09:40.297Z,40.70
2018-09-14T03:10:40.287Z,97.59
2018-09-14T03:11:40.277Z,38.29
2018-09-14T03:12:40.266Z,32.00
2018-09-14T03:13:40.256Z,42.70
2018-09-14T03:14:40.246Z,37.90
2018-09-14T03:15:40.232Z,46.29
2018-09-14T03:16:40.223Z,35.90
2018-09-14T03:17:40.210Z,171.00
2018-09-14T03:18:40.200Z,113.00
2018-09-14T03:19:40.193Z,59.59
2018-09-14T03:20:40.180Z,61.50
2018-09-14T03:21:40.169Z,40.50
2018-09-14T03:22:40.156Z,166.80
2018-09-14T03:23:40.145Z,87.90
2018-09-14T03:24:40.136Z,41.79
2018-09-14T03:25:40.125Z,67.09
2018-09-14T03:26:40.115Z,37.90
2018-09-14T03:27:40.101Z,35.00
2018-09-14T03:28:40.091Z,39.20
2018-09-14T03:29:40.080Z,121.40
2018-09-14T03:30:40.071Z,85.30
2018-09-14T03:31:40.064Z,62.79
2018-09-14T03:32:40.051Z,106.59
2018-09-14T03:33:40.037Z,79.19
2018-09-14T03:34:40.031Z,76.80
2018-09-14T03:35:40.013Z,94.19
2018-09-14T03:36:40.003Z,80.69
2018-09-14T03:37:39.991Z,102.59
2018-09-14T03:38:39.984Z,127.69
2018-09-14T03:39:39.972Z,393.29
2018-09-14T03:40:39.960Z,139.80
2018-09-14T03:41:39.948Z,88.19
2018-09-14T03:42:39.937Z,136.30
2018-09-14T03:43:39.927Z,112.69
2018-09-14T03:44:39.915Z,148.00
2018-09-14T03:45:39.905Z,115.30
2018-09-14T03:46:39.896Z,148.10
2018-09-14T03:47:39.886Z,59.79
2018-09-14T03:48:39.870Z,96.40
2018-09-14T03:49:39.860Z,61.20
2018-09-14T03:50:39.851Z,82.00
2018-09-14T03:51:39.840Z,61.29
2018-09-14T03:52:39.833Z,50.50
2018-09-14T03:53:39.818Z,225.39
2018-09-14T03:54:39.804Z,65.50
2018-09-14T03:55:39.796Z,75.00
2018-09-14T03:56:39.788Z,46.40
2018-09-14T03:57:39.772Z,60.59
2018-09-14T03:58:39.765Z,56.20
2018-09-14T03:59:39.761Z,112.00
2018-09-14T04:00:39.739Z,241.50
2018-09-14T04:01:39.728Z,144.69
2018-09-14T04:02:39.719Z,61.20
2018-09-14T04:03:39.706Z,149.00
2018-09-14T04:04:39.698Z,51.00
2018-09-14T04:05:39.684Z,56.50
2018-09-14T04:06:39.674Z,42.20
2018-09-14T04:07:39.682Z,180.50
2018-09-14T04:08:39.652Z,41.59
2018-09-14T04:09:39.643Z,60.79
2018-09-14T04:10:39.629Z,46.00
2018-09-14T04:11:39.624Z,33.40
2018-09-14T04:12:39.608Z,34.29
2018-09-14T04:13:39.598Z,37.20
2018-09-14T04:14:39.589Z,39.79
2018-09-14T04:15:39.574Z,63.40
2018-09-14T04:16:39.566Z,46.90
2018-09-14T04:17:39.562Z,115.19
2018-09-14T04:18:39.544Z,44.50
2018-09-14T04:19:39.537Z,37.20
2018-09-14T04:20:39.521Z,50.59
2018-09-14T04:21:39.514Z,40.50
2018-09-14T04:22:39.497Z,48.70
2018-09-14T04:23:39.572Z,51.20
2018-09-14T04:24:39.479Z,71.50
2018-09-14T04:25:39.466Z,92.59
2018-09-14T04:26:39.457Z,45.00
2018-09-14T04:27:39.443Z,60.59
2018-09-14T04:28:39.440Z,69.19
2018-09-14T04:29:39.429Z,51.70
2018-09-14T04:30:39.416Z,81.80
2018-09-14T04:31:39.401Z,39.40
2018-09-14T04:32:39.393Z,123.69
2018-09-14T04:33:39.378Z,114.40
2018-09-14T04:34:39.366Z,67.09
2018-09-14T04:35:39.357Z,91.19
2018-09-14T04:36:39.345Z,83.40
2018-09-14T04:37:39.339Z,81.59
2018-09-14T04:38:39.413Z,280.70
2018-09-14T04:39:39.312Z,83.19
2018-09-14T04:40:39.304Z,106.09
2018-09-14T04:41:39.291Z,76.59
2018-09-14T04:42:39.282Z,108.19
2018-09-14T04:43:39.269Z,76.50
2018-09-14T04:44:39.260Z,244.69
2018-09-14T04:45:39.250Z,177.69
2018-09-14T04:46:39.237Z,67.59
2018-09-14T04:47:39.227Z,40.50
2018-09-14T04:48:39.215Z,129.30
2018-09-14T04:49:39.205Z,55.79
2018-09-14T04:50:39.195Z,47.59
2018-09-14T04:51:39.183Z,58.59
2018-09-14T04:52:39.171Z,129.89
2018-09-14T04:53:39.159Z,25.89
2018-09-14T04:54:39.150Z,62.59
2018-09-14T04:55:39.137Z,27.20
2018-09-14T04:56:39.137Z,139.30
2018-09-14T04:57:39.119Z,67.00
2018-09-14T04:58:39.111Z,26.70
2018-09-14T04:59:39.096Z,28.29
2018-09-14T05:00:39.085Z,61.40
2018-09-14T05:01:39.079Z,26.29
2018-09-14T05:02:39.063Z,25.89
2018-09-14T05:03:39.053Z,79.00
2018-09-14T05:04:39.043Z,61.79
2018-09-14T05:05:39.028Z,51.29
2018-09-14T05:06:39.020Z,35.40
2018-09-14T05:07:39.054Z,27.60
2018-09-14T05:08:38.998Z,25.89
2018-09-14T05:09:38.985Z,63.29
2018-09-14T05:10:38.976Z,119.50
2018-09-14T05:11:38.963Z,23.70
2018-09-14T05:12:38.951Z,23.50
2018-09-14T05:13:38.943Z,49.40
2018-09-14T05:14:38.933Z,23.20
2018-09-14T05:15:38.921Z,23.79
2018-09-14T05:16:38.914Z,25.89
2018-09-14T05:17:38.897Z,23.20
2018-09-14T05:18:38.887Z,66.90
2018-09-14T05:19:38.875Z,134.30
2018-09-14T05:20:38.869Z,103.30
2018-09-14T05:21:38.855Z,35.09
2018-09-14T05:22:38.841Z,23.10
2018-09-14T05:23:38.832Z,21.20
2018-09-14T05:24:38.875Z,21.20
2018-09-14T05:25:38.808Z,21.39
2018-09-14T05:26:38.799Z,21.20
2018-09-14T05:27:38.788Z,22.20
2018-09-14T05:28:38.778Z,24.70
2018-09-14T05:29:38.767Z,39.00
2018-09-14T05:30:38.757Z,23.70
2018-09-14T05:31:38.746Z,21.29
2018-09-14T05:32:38.734Z,24.20
2018-09-14T05:33:38.724Z,21.39
2018-09-14T05:34:38.713Z,24.00
2018-09-14T05:35:38.701Z,23.20
2018-09-14T05:36:38.690Z,22.10
2018-09-14T05:37:38.682Z,20.39
2018-09-14T05:38:38.676Z,23.79
2018-09-14T05:39:38.657Z,22.20
2018-09-14T05:40:38.646Z,20.60
2018-09-14T05:41:38.639Z,22.89
2018-09-14T05:42:38.622Z,22.79
2018-09-14T05:43:38.613Z,19.70
2018-09-14T05:44:38.606Z,20.00
2018-09-14T05:45:38.601Z,18.39
2018-09-14T05:46:38.582Z,18.79
2018-09-14T05:47:38.598Z,20.50
2018-09-14T05:48:38.560Z,18.29
2018-09-14T05:49:38.549Z,21.89
2018-09-14T05:50:38.539Z,18.10
2018-09-14T05:51:38.526Z,19.29
2018-09-14T05:52:38.520Z,18.00
2018-09-14T05:53:38.507Z,18.39
2018-09-14T05:54:38.534Z,18.79
2018-09-14T05:55:38.483Z,17.70
2018-09-14T05:56:38.474Z,16.00
2018-09-14T05:57:38.463Z,16.20
2018-09-14T05:58:38.455Z,16.00
2018-09-14T05:59:38.439Z,17.20
2018-09-14T06:00:38.426Z,16.29
2018-09-14T06:01:38.468Z,16.10
2018-09-14T06:02:38.408Z,13.30
2018-09-14T06:03:38.393Z,18.50
2018-09-14T06:04:38.388Z,14.10
2018-09-14T06:05:38.371Z,13.60
2018-09-14T06:06:38.418Z,14.50
2018-09-14T06:07:38.351Z,12.80
2018-09-14T06:08:38.340Z,10.80
2018-09-14T06:09:38.330Z,11.80
2018-09-14T06:10:38.320Z,11.50
2018-09-14T06:11:38.311Z,10.69
2018-09-14T06:12:38.302Z,11.69
2018-09-14T06:13:38.287Z,11.00
2018-09-14T06:14:38.273Z,15.89
2018-09-14T06:15:38.263Z,14.10
2018-09-14T06:16:38.254Z,14.69
2018-09-14T06:17:38.242Z,12.89
2018-09-14T06:18:38.232Z,14.89
2018-09-14T06:19:38.218Z,15.60
2018-09-14T06:20:38.209Z,15.80
2018-09-14T06:21:38.196Z,15.69
2018-09-14T06:22:38.245Z,15.50
2018-09-14T06:23:38.175Z,16.00
2018-09-14T06:24:38.169Z,15.30
2018-09-14T06:25:38.156Z,15.80
2018-09-14T06:26:38.143Z,16.20
2018-09-14T06:27:38.133Z,15.89
2018-09-14T06:28:38.123Z,16.39
2018-09-14T06:29:38.109Z,16.20
2018-09-14T06:30:38.099Z,15.89
2018-09-14T06:31:38.087Z,16.20
2018-09-14T06:32:38.078Z,15.69
2018-09-14T06:33:38.068Z,16.10
2018-09-14T06:34:38.054Z,13.19
2018-09-14T06:35:38.045Z,14.50
2018-09-14T06:36:38.036Z,14.10
2018-09-14T06:37:38.024Z,14.10
2018-09-14T06:38:38.017Z,14.50
2018-09-14T06:39:38.064Z,14.50
2018-09-14T06:40:37.993Z,13.30
2018-09-14T06:41:37.980Z,12.80
2018-09-14T06:42:37.970Z,12.69
2018-09-14T06:43:37.957Z,12.80
2018-09-14T06:44:37.945Z,13.30
2018-09-14T06:45:37.934Z,13.89
2018-09-14T06:46:37.926Z,13.80
2018-09-14T06:47:37.915Z,14.19
2018-09-14T06:48:37.902Z,12.80
2018-09-14T06:49:37.894Z,13.10
2018-09-14T06:50:37.880Z,12.39
2018-09-14T06:51:37.869Z,12.50
2018-09-14T06:52:37.860Z,13.10
2018-09-14T06:53:37.849Z,12.60
2018-09-14T06:54:37.840Z,12.10
2018-09-14T06:55:37.826Z,13.30
2018-09-14T06:56:37.816Z,13.19
2018-09-14T06:57:37.801Z,12.60
2018-09-14T06:58:37.794Z,13.89
2018-09-14T06:59:37.785Z,13.10
2018-09-14T07:00:37.771Z,12.69
2018-09-14T07:01:37.758Z,12.69
2018-09-14T07:02:37.751Z,11.69
2018-09-14T07:03:37.742Z,12.39
2018-09-14T07:04:37.730Z,12.00
2018-09-14T07:05:37.717Z,13.00
2018-09-14T07:06:37.706Z,12.69
2018-09-14T07:07:37.694Z,11.69
2018-09-14T07:08:37.686Z,13.19
2018-09-14T07:09:37.692Z,11.80
2018-09-14T07:10:37.662Z,12.89
2018-09-14T07:11:37.675Z,12.39
2018-09-14T07:12:37.642Z,13.60
2018-09-14T07:13:37.630Z,12.80
2018-09-14T07:14:37.617Z,13.00
2018-09-14T07:15:37.612Z,12.69
2018-09-14T07:16:37.597Z,12.10
2018-09-14T07:17:37.585Z,12.50
2018-09-14T07:18:37.573Z,11.60
2018-09-14T07:19:37.563Z,12.10
2018-09-14T07:20:37.553Z,11.80
2018-09-14T07:21:37.581Z,12.00
2018-09-14T07:22:37.531Z,11.69
2018-09-14T07:23:37.520Z,12.10
2018-09-14T07:24:37.602Z,11.69
2018-09-14T07:25:37.525Z,11.00
2018-09-14T07:26:37.509Z,11.80
2018-09-14T07:27:37.483Z,12.30
2018-09-14T07:28:37.487Z,12.30
2018-09-14T07:29:37.459Z,12.50
2018-09-14T07:30:37.467Z,11.30
2018-09-14T07:31:37.482Z,11.30
2018-09-14T07:32:37.422Z,11.19
2018-09-14T07:33:37.409Z,11.19
2018-09-14T07:34:37.399Z,11.60
2018-09-14T07:35:37.389Z,11.50
2018-09-14T07:36:37.516Z,11.69
2018-09-14T07:37:37.367Z,11.80
2018-09-14T07:38:37.353Z,12.30
2018-09-14T07:39:37.343Z,12.69
2018-09-14T07:40:37.333Z,12.60
2018-09-14T07:41:37.322Z,13.39
2018-09-14T07:42:37.398Z,13.00
2018-09-14T07:43:37.299Z,11.80
2018-09-14T07:44:37.287Z,12.19
2018-09-14T07:45:37.281Z,12.10
2018-09-14T07:46:37.265Z,11.89
2018-09-14T07:47:37.254Z,11.39
2018-09-14T07:48:37.253Z,12.10
2018-09-14T07:49:37.232Z,12.39
2018-09-14T07:50:37.223Z,12.39
2018-09-14T07:51:37.215Z,12.10
2018-09-14T07:52:37.200Z,11.50
2018-09-14T07:53:37.188Z,11.50
2018-09-14T07:54:37.196Z,11.80
2018-09-14T07:55:37.227Z,12.19
2018-09-14T07:56:37.161Z,11.69
2018-09-14T07:57:37.150Z,12.19
2018-09-14T07:58:37.136Z,11.39
2018-09-14T07:59:37.124Z,11.69
2018-09-14T08:00:37.115Z,12.00
2018-09-14T08:01:37.106Z,12.69
2018-09-14T08:02:37.093Z,11.30
2018-09-14T08:03:37.088Z,11.19
2018-09-14T08:04:37.073Z,11.60
2018-09-14T08:05:37.062Z,11.30
2018-09-14T08:06:37.052Z,11.19
2018-09-14T08:07:37.038Z,12.69
2018-09-14T08:08:37.032Z,11.19
2018-09-14T08:09:37.015Z,11.39
2018-09-14T08:10:37.005Z,11.50
2018-09-14T08:11:36.994Z,11.60
2018-09-14T08:12:36.983Z,11.69
2018-09-14T08:13:36.983Z,11.30
2018-09-14T08:14:37.051Z,10.89
2018-09-14T08:15:36.950Z,10.69
2018-09-14T08:16:36.987Z,10.89
2018-09-14T08:17:36.928Z,11.30
2018-09-14T08:18:36.917Z,12.69
2018-09-14T08:19:36.912Z,10.80
2018-09-14T08:20:36.896Z,10.80
2018-09-14T08:21:36.942Z,10.69
2018-09-14T08:22:36.873Z,10.80
2018-09-14T08:23:36.864Z,11.50
2018-09-14T08:24:36.851Z,10.60
2018-09-14T08:25:36.843Z,11.60
2018-09-14T08:26:36.831Z,10.30
2018-09-14T08:27:36.819Z,11.10
2018-09-14T08:28:36.813Z,10.50
2018-09-14T08:29:36.797Z,11.30
2018-09-14T08:30:36.787Z,12.00
2018-09-14T08:31:36.779Z,11.89
2018-09-14T08:32:36.767Z,11.39
2018-09-14T08:33:36.757Z,11.00
2018-09-14T08:34:36.745Z,11.50
2018-09-14T08:35:36.734Z,11.10
2018-09-14T08:36:36.721Z,11.80
2018-09-14T08:37:36.710Z,10.69
2018-09-14T08:38:36.700Z,10.89
2018-09-14T08:39:36.690Z,11.89
2018-09-14T08:40:36.679Z,12.10
2018-09-14T08:41:36.725Z,10.69
2018-09-14T08:42:36.656Z,10.80
2018-09-14T08:43:36.650Z,11.00
2018-09-14T08:44:36.633Z,11.50
2018-09-14T08:45:36.629Z,11.69
2018-09-14T08:46:36.612Z,11.10
2018-09-14T08:47:36.604Z,12.30
2018-09-14T08:48:36.591Z,10.30
2018-09-14T08:49:36.584Z,10.39
2018-09-14T08:50:36.576Z,10.60
2018-09-14T08:51:36.559Z,11.00
2018-09-14T08:52:36.546Z,11.19
2018-09-14T08:53:36.644Z,10.30
2018-09-14T08:54:36.526Z,9.60
2018-09-14T08:55:36.518Z,11.19
2018-09-14T08:56:36.506Z,11.50
2018-09-14T08:57:36.495Z,10.69
2018-09-14T08:58:36.483Z,11.00
2018-09-14T08:59:36.471Z,11.19
2018-09-14T09:00:36.569Z,10.50
2018-09-14T09:01:36.448Z,11.19
2018-09-14T09:02:36.441Z,10.30
2018-09-14T09:03:36.429Z,10.10
2018-09-14T09:04:36.417Z,11.19
2018-09-14T09:05:36.405Z,9.19
2018-09-14T09:06:36.398Z,9.60
2018-09-14T09:07:36.384Z,9.69
2018-09-14T09:08:36.371Z,9.19
2018-09-14T09:09:36.360Z,8.89
2018-09-14T09:10:36.401Z,9.39
2018-09-14T09:11:36.341Z,11.80
2018-09-14T09:12:36.330Z,9.50
2018-09-14T09:13:36.318Z,8.89
2018-09-14T09:14:36.307Z,9.39
2018-09-14T09:15:36.295Z,9.30
2018-09-14T09:16:36.285Z,9.69
2018-09-14T09:17:36.279Z,10.39
2018-09-14T09:18:36.263Z,8.69
2018-09-14T09:19:36.251Z,8.69
2018-09-14T09:20:36.239Z,8.60
2018-09-14T09:21:36.231Z,9.39
2018-09-14T09:22:36.219Z,7.90
2018-09-14T09:23:36.207Z,7.80
2018-09-14T09:24:36.198Z,8.10
2018-09-14T09:25:36.187Z,8.10
2018-09-14T09:26:36.173Z,9.10
2018-09-14T09:27:36.161Z,8.89
2018-09-14T09:28:36.151Z,8.10
2018-09-14T09:29:36.243Z,9.10
2018-09-14T09:30:36.131Z,8.69
2018-09-14T09:31:36.117Z,8.50
2018-09-14T09:32:36.110Z,6.59
2018-09-14T09:33:36.100Z,8.60
2018-09-14T09:34:36.084Z,9.00
2018-09-14T09:35:36.073Z,7.50
2018-09-14T09:36:36.063Z,6.59
2018-09-14T09:37:36.052Z,6.69
2018-09-14T09:38:36.048Z,6.19
2018-09-14T09:39:36.030Z,6.80
2018-09-14T09:40:36.022Z,5.69
2018-09-14T09:41:36.007Z,6.59
2018-09-14T09:42:35.996Z,5.90
2018-09-14T09:43:36.134Z,7.50
2018-09-14T09:44:35.975Z,5.09
2018-09-14T09:45:35.963Z,7.09
2018-09-14T09:46:35.951Z,5.30
2018-09-14T09:47:35.943Z,6.19
2018-09-14T09:48:35.939Z,6.50
2018-09-14T09:49:35.926Z,7.19
2018-09-14T09:50:35.911Z,5.19
2018-09-14T09:51:35.900Z,7.30
2018-09-14T09:52:35.887Z,6.09
2018-09-14T09:53:35.878Z,5.30
2018-09-14T09:54:35.865Z,6.09
2018-09-14T09:55:35.955Z,6.90
2018-09-14T09:56:35.855Z,6.40
2018-09-14T09:57:35.832Z,7.59
2018-09-14T09:58:35.822Z,5.69
2018-09-14T09:59:35.814Z,5.80
2018-09-14T10:00:35.804Z,6.19
2018-09-14T10:01:35.790Z,4.80
2018-09-14T10:02:35.779Z,7.69
2018-09-14T10:03:35.843Z,6.80
2018-09-14T10:04:35.761Z,6.30
2018-09-14T10:05:35.746Z,6.90
2018-09-14T10:06:35.735Z,7.40
2018-09-14T10:07:35.723Z,5.69
2018-09-14T10:08:35.713Z,7.69
2018-09-14T10:09:35.701Z,7.90
2018-09-14T10:10:35.691Z,7.59
2018-09-14T10:11:35.680Z,9.30
2018-09-14T10:12:35.668Z,8.10
2018-09-14T10:13:35.657Z,8.60
2018-09-14T10:14:35.646Z,8.10
2018-09-14T10:15:35.635Z,9.00
2018-09-14T10:16:35.622Z,8.19
2018-09-14T10:17:35.612Z,9.19
2018-09-14T10:18:35.606Z,7.80
2018-09-14T10:19:35.590Z,8.00
2018-09-14T10:20:35.618Z,8.19
2018-09-14T10:21:35.624Z,8.60
2018-09-14T10:22:35.557Z,8.39
2018-09-14T10:23:35.546Z,7.40
2018-09-14T10:24:35.536Z,7.90
2018-09-14T10:25:35.525Z,8.10
2018-09-14T10:26:35.515Z,8.30
2018-09-14T10:27:35.503Z,7.90
2018-09-14T10:28:35.493Z,7.80
2018-09-14T10:29:35.480Z,6.50
2018-09-14T10:30:35.469Z,7.09
2018-09-14T10:31:35.460Z,6.19
2018-09-14T10:32:35.446Z,7.90
2018-09-14T10:33:35.438Z,5.50
2018-09-14T10:34:35.428Z,5.80
2018-09-14T10:35:35.416Z,7.09
2018-09-14T10:36:35.406Z,7.50
2018-09-14T10:37:35.394Z,8.30
2018-09-14T10:38:35.381Z,11.30
2018-09-14T10:39:35.372Z,11.80
2018-09-14T10:40:35.370Z,11.80
2018-09-14T10:41:35.350Z,11.89
2018-09-14T10:42:35.336Z,9.69
2018-09-14T10:43:35.328Z,7.69
2018-09-14T10:44:35.317Z,10.39
2018-09-14T10:45:35.306Z,11.89
2018-09-14T10:46:35.294Z,12.19
2018-09-14T10:47:35.285Z,11.60
2018-09-14T10:48:35.272Z,9.89
2018-09-14T10:49:35.264Z,8.89
2018-09-14T10:50:35.251Z,7.50
2018-09-14T10:51:35.239Z,8.10
2018-09-14T10:52:35.228Z,10.10
2018-09-14T10:53:35.217Z,9.60
2018-09-14T10:54:35.210Z,11.00
2018-09-14T10:55:35.197Z,9.19
2018-09-14T10:56:35.186Z,10.60
2018-09-14T10:57:35.174Z,11.30
2018-09-14T10:58:35.167Z,10.60
2018-09-14T10:59:35.157Z,11.30
2018-09-14T11:00:35.140Z,12.39
2018-09-14T11:01:35.128Z,10.19
2018-09-14T11:02:35.120Z,10.50
2018-09-14T11:03:35.108Z,10.89
2018-09-14T11:04:35.230Z,12.19
2018-09-14T11:05:35.088Z,10.00
2018-09-14T11:06:35.130Z,10.69
2018-09-14T11:07:35.064Z,9.00
2018-09-14T11:08:35.052Z,11.10
2018-09-14T11:09:35.047Z,9.10
2018-09-14T11:10:35.032Z,9.00
2018-09-14T11:11:35.026Z,8.60
2018-09-14T11:12:35.040Z,12.00
2018-09-14T11:13:34.997Z,10.19
2018-09-14T11:14:34.987Z,11.89
2018-09-14T11:15:34.977Z,10.50
2018-09-14T11:16:34.964Z,10.60
2018-09-14T11:17:34.956Z,10.19
2018-09-14T11:18:35.017Z,10.30
2018-09-14T11:19:34.932Z,10.10
2018-09-14T11:20:34.956Z,9.10
2018-09-14T11:21:34.910Z,9.30
2018-09-14T11:22:34.899Z,7.00
2018-09-14T11:23:34.892Z,12.00
2018-09-14T11:24:34.887Z,10.69
2018-09-14T11:25:34.868Z,10.39
2018-09-14T11:26:34.855Z,10.39
2018-09-14T11:27:34.844Z,10.69
2018-09-14T11:28:34.837Z,10.89
2018-09-14T11:29:34.824Z,10.50
2018-09-14T11:30:34.817Z,9.80
2018-09-14T11:31:34.800Z,12.00
2018-09-14T11:32:34.792Z,12.30
2018-09-14T11:33:34.777Z,12.00
2018-09-14T11:34:34.788Z,10.89
2018-09-14T11:35:34.757Z,11.00
2018-09-14T11:36:34.750Z,12.60
2018-09-14T11:37:34.801Z,9.30
2018-09-14T11:38:34.877Z,12.30
2018-09-14T11:39:34.716Z,10.69
2018-09-14T11:40:34.707Z,11.30
2018-09-14T11:41:34.692Z,11.10
2018-09-14T11:42:34.682Z,10.00
2018-09-14T11:43:34.672Z,11.10
2018-09-14T11:44:34.663Z,12.30
2018-09-14T11:45:34.648Z,11.30
2018-09-14T11:46:34.638Z,10.19
2018-09-14T11:47:34.631Z,9.10
2018-09-14T11:48:34.619Z,9.60
2018-09-14T11:49:34.606Z,10.00
2018-09-14T11:50:34.601Z,9.89
2018-09-14T11:51:34.583Z,8.69
2018-09-14T11:52:34.572Z,8.00
2018-09-14T11:53:34.562Z,9.10
2018-09-14T11:54:34.550Z,10.00
2018-09-14T11:55:34.543Z,9.69
2018-09-14T11:56:34.530Z,10.39
2018-09-14T11:57:34.518Z,12.60
2018-09-14T11:58:34.508Z,13.30
2018-09-14T11:59:34.495Z,10.60
2018-09-14T12:00:34.487Z,10.69
2018-09-14T12:01:34.475Z,10.69
2018-09-14T12:02:34.464Z,8.19
2018-09-14T12:03:34.451Z,8.89
2018-09-14T12:04:34.442Z,7.90
2018-09-14T12:05:34.434Z,9.39
2018-09-14T12:06:34.418Z,10.00
2018-09-14T12:07:34.410Z,9.10
2018-09-14T12:08:34.398Z,9.10
2018-09-14T12:09:34.385Z,7.69
2018-09-14T12:10:34.378Z,8.89
2018-09-14T12:11:34.364Z,9.69
2018-09-14T12:12:34.357Z,6.09
2018-09-14T12:13:34.403Z,7.09
2018-09-14T12:14:34.331Z,8.69
2018-09-14T12:15:34.321Z,7.59
2018-09-14T12:16:34.313Z,8.19
2018-09-14T12:17:34.302Z,11.60
2018-09-14T12:18:34.296Z,10.50
2018-09-14T12:19:34.279Z,12.69
2018-09-14T12:20:34.266Z,10.69
2018-09-14T12:21:34.259Z,10.10
2018-09-14T12:22:34.251Z,8.80
2018-09-14T12:23:34.238Z,8.80
2018-09-14T12:24:34.226Z,7.80
2018-09-14T12:25:34.212Z,10.69
2018-09-14T12:26:34.210Z,11.39
2018-09-14T12:27:34.194Z,10.89
2018-09-14T12:28:34.180Z,9.00
2018-09-14T12:29:34.171Z,10.69
2018-09-14T12:30:34.164Z,10.50
2018-09-14T12:31:34.148Z,12.69
2018-09-14T12:32:34.136Z,10.80
2018-09-14T12:33:34.125Z,14.60
2018-09-14T12:34:34.116Z,11.39
2018-09-14T12:35:34.162Z,12.89
2018-09-14T12:36:34.141Z,9.80
2018-09-14T12:37:34.083Z,8.10
2018-09-14T12:38:34.071Z,11.39
2018-09-14T12:39:34.061Z,13.30
2018-09-14T12:40:34.048Z,10.39
2018-09-14T12:41:34.046Z,13.19
2018-09-14T12:42:34.029Z,11.60
2018-09-14T12:43:34.022Z,12.39
2018-09-14T12:44:34.006Z,12.50
2018-09-14T12:45:33.995Z,12.60
2018-09-14T12:46:33.986Z,11.69
2018-09-14T12:47:33.977Z,11.69
2018-09-14T12:48:33.967Z,12.89
2018-09-14T12:49:33.950Z,11.89
2018-09-14T12:50:33.938Z,10.00
2018-09-14T12:51:33.929Z,10.50
2018-09-14T12:52:33.918Z,13.50
2018-09-14T12:53:33.908Z,12.69
2018-09-14T12:54:33.895Z,13.39
2018-09-14T12:55:33.888Z,10.50